Time;durP1;ratioP1;P1;durP2;ratioP2;P2;SDS_P1;SDS_P2;PMS_P1;PMS_P2;Temp;Humidity;BMP_temperature;BMP_pressure;BME280_temperature;BME280_humidity;BME280_pressure;Samples;Min_cycle;Max_cycle;Signal;HPM_P1;HPM_P2
2022/11/14 00:02:12;;;;;;;35.70;24.60;;;7.30;99.90;;;;;;5112214;28;20046;-70
2022/11/14 00:04:37;;;;;;;36.95;25.15;;;7.20;99.90;;;;;;5112300;28;20046;-70
2022/11/14 00:07:03;;;;;;;33.65;24.00;;;7.30;99.90;;;;;;5118618;28;20044;-70
2022/11/14 00:09:28;;;;;;;36.95;24.55;;;7.20;99.90;;;;;;5118973;28;20088;-70
2022/11/14 00:11:54;;;;;;;36.85;24.40;;;7.20;99.90;;;;;;5118957;28;20046;-70
2022/11/14 00:14:20;;;;;;;36.00;24.13;;;7.30;99.90;;;;;;5119718;28;20043;-70
2022/11/14 00:16:46;;;;;;;35.97;24.90;;;7.30;99.90;;;;;;5120305;27;20519;-70
2022/11/14 00:19:12;;;;;;;35.67;23.90;;;7.30;99.90;;;;;;5118775;28;20058;-70
2022/11/14 00:21:37;;;;;;;34.08;24.00;;;7.30;99.90;;;;;;5118875;28;20032;-70
2022/11/14 00:24:03;;;;;;;37.75;24.98;;;7.30;99.90;;;;;;5118861;28;20069;-70
2022/11/14 00:26:29;;;;;;;35.75;24.70;;;7.30;99.90;;;;;;5118913;28;20042;-70
2022/11/14 00:28:55;;;;;;;34.90;24.45;;;7.40;99.90;;;;;;5118862;28;20051;-70
2022/11/14 00:31:20;;;;;;;33.28;23.23;;;7.30;99.90;;;;;;5119021;28;20051;-70
2022/11/14 00:33:46;;;;;;;35.63;24.30;;;7.40;99.90;;;;;;5119113;28;20492;-70
2022/11/14 00:36:12;;;;;;;32.85;24.33;;;7.40;99.90;;;;;;5118802;28;20496;-70
2022/11/14 00:38:37;;;;;;;31.95;23.15;;;7.40;99.90;;;;;;5118719;28;20043;-70
2022/11/14 00:41:03;;;;;;;35.08;23.80;;;7.40;99.90;;;;;;5118708;28;20047;-70
2022/11/14 00:43:28;;;;;;;31.83;23.08;;;7.40;99.90;;;;;;5119970;28;20036;-70
2022/11/14 00:45:54;;;;;;;31.70;23.77;;;7.40;99.90;;;;;;5118751;28;20042;-70
2022/11/14 00:48:19;;;;;;;35.38;23.80;;;7.50;99.90;;;;;;5118733;28;20082;-70
2022/11/14 00:50:45;;;;;;;31.65;23.98;;;7.50;99.90;;;;;;5118602;28;20126;-70
2022/11/14 00:53:11;;;;;;;34.40;24.30;;;7.50;99.90;;;;;;5118647;28;20050;-70
2022/11/14 00:55:38;;;;;;;34.10;25.35;;;7.50;99.90;;;;;;5118673;28;20499;-71
2022/11/14 00:58:03;;;;;;;35.97;25.48;;;7.40;99.90;;;;;;5118951;28;20062;-71
2022/11/14 01:00:29;;;;;;;35.63;26.38;;;7.50;99.90;;;;;;5118545;28;20492;-71
2022/11/14 01:02:57;;;;;;;33.55;25.10;;;7.40;99.90;;;;;;5118433;28;20496;-70
2022/11/14 01:05:23;;;;;;;36.47;26.17;;;7.40;99.90;;;;;;5118839;28;20094;-70
2022/11/14 01:07:49;;;;;;;34.40;25.77;;;7.40;99.90;;;;;;5118523;28;20040;-71
2022/11/14 01:10:15;;;;;;;34.72;24.95;;;7.50;99.90;;;;;;5118393;28;20116;-71
2022/11/14 01:12:41;;;;;;;38.88;26.98;;;7.50;99.90;;;;;;5118366;28;20051;-71
2022/11/14 01:15:07;;;;;;;34.97;26.15;;;7.50;99.90;;;;;;5118939;28;20040;-71
2022/11/14 01:17:33;;;;;;;35.25;25.45;;;7.50;99.90;;;;;;5115243;28;20040;-71
2022/11/14 01:19:58;;;;;;;36.58;26.88;;;7.50;99.90;;;;;;5116903;28;20100;-71
2022/11/14 01:22:24;;;;;;;36.05;26.60;;;7.50;99.90;;;;;;5115043;28;20407;-71
2022/11/14 01:24:49;;;;;;;37.92;28.05;;;7.40;99.90;;;;;;5115023;28;20067;-71
2022/11/14 01:27:15;;;;;;;43.38;28.75;;;7.50;99.90;;;;;;5114970;28;20036;-71
2022/11/14 01:29:41;;;;;;;34.90;26.77;;;7.50;99.90;;;;;;5116245;28;20042;-71
2022/11/14 01:32:06;;;;;;;34.88;26.33;;;7.40;99.90;;;;;;5114834;28;20086;-70
2022/11/14 01:34:32;;;;;;;40.85;28.83;;;7.50;99.90;;;;;;5114874;28;20042;-70
2022/11/14 01:36:57;;;;;;;40.75;30.63;;;7.50;99.90;;;;;;5114801;28;20075;-70
2022/11/14 01:39:25;;;;;;;41.40;30.98;;;7.40;99.90;;;;;;5114740;28;20047;-70
2022/11/14 01:41:51;;;;;;;42.13;30.48;;;7.40;99.90;;;;;;5114606;28;20046;-71
2022/11/14 01:44:37;;;;;;;43.00;31.67;;;7.40;99.90;;;;;;5114684;28;20123;-71
2022/11/14 01:47:03;;;;;;;44.88;32.13;;;7.40;99.90;;;;;;5114968;28;20514;-71
2022/11/14 01:49:51;;;;;;;43.83;31.42;;;7.40;99.90;;;;;;5114646;28;20052;-71
2022/11/14 01:52:40;;;;;;;41.63;31.25;;;7.40;99.90;;;;;;5114532;28;20088;-71
2022/11/14 01:55:08;;;;;;;44.95;32.30;;;7.40;99.90;;;;;;5113957;28;20093;-71
2022/11/14 01:57:39;;;;;;;45.67;33.38;;;7.30;99.90;;;;;;5114727;28;20091;-71
2022/11/14 02:00:09;;;;;;;44.67;32.20;;;7.30;99.90;;;;;;5114408;28;20044;-71
2022/11/14 02:02:37;;;;;;;51.53;35.20;;;7.30;99.90;;;;;;5114281;28;20044;-70
2022/11/14 02:05:11;;;;;;;50.00;35.75;;;7.30;99.90;;;;;;5114258;28;20044;-70
2022/11/14 02:07:39;;;;;;;45.28;34.22;;;7.30;99.90;;;;;;5115616;28;20071;-70
2022/11/14 02:10:08;;;;;;;48.15;33.45;;;7.30;99.90;;;;;;5114228;28;20058;-70
2022/11/14 02:12:34;;;;;;;48.78;34.97;;;7.30;99.90;;;;;;5114310;28;20523;-70
2022/11/14 02:15:01;;;;;;;48.05;34.92;;;7.30;99.90;;;;;;5114125;28;20039;-70
2022/11/14 02:17:27;;;;;;;47.58;33.97;;;7.30;99.90;;;;;;5114304;28;20139;-70
2022/11/14 02:20:00;;;;;;;47.30;35.20;;;7.30;99.90;;;;;;5114056;28;20526;-70
2022/11/14 02:22:25;;;;;;;;;;;7.30;99.90;;;;;;5114584;28;20134;-70
2022/11/14 02:24:51;;;;;;;49.78;35.53;;;7.30;99.90;;;;;;5113937;28;20391;-70
2022/11/14 02:27:17;;;;;;;47.08;35.00;;;7.20;99.90;;;;;;5113870;28;20040;-70
2022/11/14 02:29:42;;;;;;;49.40;34.90;;;7.20;99.90;;;;;;5096485;28;20126;-70
2022/11/14 02:32:08;;;;;;;50.65;34.53;;;7.30;99.90;;;;;;5114437;28;20040;-70
2022/11/14 02:34:33;;;;;;;50.03;36.50;;;7.20;99.90;;;;;;5113663;28;20119;-70
2022/11/14 02:36:59;;;;;;;52.50;37.90;;;7.20;99.90;;;;;;5114924;28;20032;-70
2022/11/14 02:39:25;;;;;;;52.00;37.75;;;7.20;99.90;;;;;;5113533;28;20632;-70
2022/11/14 02:41:51;;;;;;;54.38;38.22;;;7.20;99.90;;;;;;5113317;28;20040;-71
2022/11/14 02:44:18;;;;;;;56.08;37.67;;;7.20;99.90;;;;;;5113728;28;20028;-71
2022/11/14 02:46:43;;;;;;;55.35;39.08;;;7.20;99.90;;;;;;5113478;28;20078;-71
2022/11/14 02:49:09;;;;;;;55.53;38.28;;;7.20;99.90;;;;;;5114883;28;20067;-71
2022/11/14 02:51:34;;;;;;;53.60;37.70;;;7.20;99.90;;;;;;5113331;28;20058;-71
2022/11/14 02:54:00;;;;;;;55.85;38.70;;;7.20;99.90;;;;;;5113316;28;20046;-70
2022/11/14 02:56:26;;;;;;;55.08;38.55;;;7.20;99.90;;;;;;5113302;28;20051;-70
2022/11/14 02:58:51;;;;;;;53.30;37.03;;;7.20;99.90;;;;;;5113206;28;20043;-70
2022/11/14 03:01:17;;;;;;;55.50;37.58;;;7.20;99.90;;;;;;5113176;28;20123;-70
2022/11/14 03:03:43;;;;;;;52.65;37.03;;;7.20;99.90;;;;;;5113174;28;20089;-70
2022/11/14 03:06:08;;;;;;;55.15;38.80;;;7.20;99.90;;;;;;5113074;28;20035;-70
2022/11/14 03:08:34;;;;;;;58.40;40.33;;;7.20;99.90;;;;;;5113055;28;20043;-71
2022/11/14 03:11:08;;;;;;;56.45;39.17;;;7.20;99.90;;;;;;5113214;28;20050;-71
2022/11/14 03:13:34;;;;;;;56.45;39.33;;;7.20;99.90;;;;;;5113065;28;20100;-71
2022/11/14 03:16:10;;;;;;;54.53;38.65;;;7.20;99.90;;;;;;5112967;28;20051;-71
2022/11/14 03:18:36;;;;;;;55.40;38.63;;;7.20;99.90;;;;;;5114112;28;20407;-71
2022/11/14 03:21:11;;;;;;;55.92;38.30;;;7.20;99.90;;;;;;5112792;28;20047;-71
2022/11/14 03:23:37;;;;;;;58.28;38.60;;;7.20;99.90;;;;;;5112837;28;20124;-71
2022/11/14 03:26:05;;;;;;;53.22;37.78;;;7.20;99.90;;;;;;5112813;28;20079;-70
2022/11/14 03:28:32;;;;;;;57.15;38.33;;;7.20;99.90;;;;;;5113058;28;20031;-70
2022/11/14 03:30:57;;;;;;;51.90;37.25;;;7.20;99.90;;;;;;5112713;28;20506;-70
2022/11/14 03:33:23;;;;;;;53.95;39.10;;;7.10;99.90;;;;;;5112693;28;20048;-70
2022/11/14 03:35:49;;;;;;;57.05;39.58;;;7.10;99.90;;;;;;5112712;28;20403;-70
2022/11/14 03:38:15;;;;;;;60.08;38.88;;;7.10;99.90;;;;;;5112617;28;20046;-70
2022/11/14 03:40:41;;;;;;;58.17;38.60;;;7.10;99.90;;;;;;5111871;28;20044;-70
2022/11/14 03:43:07;;;;;;;54.70;37.95;;;7.10;99.90;;;;;;5112380;28;20046;-70
2022/11/14 03:45:32;;;;;;;57.92;37.90;;;7.10;99.90;;;;;;5112467;28;20057;-70
2022/11/14 03:47:58;;;;;;;55.05;39.08;;;7.10;99.90;;;;;;5113718;28;20069;-70
2022/11/14 03:50:23;;;;;;;60.95;40.92;;;7.10;99.90;;;;;;5112427;28;20050;-70
2022/11/14 03:52:49;;;;;;;57.40;39.58;;;7.10;99.90;;;;;;5112603;28;20051;-70
2022/11/14 03:55:15;;;;;;;57.13;39.22;;;7.10;99.90;;;;;;5112357;28;20035;-70
2022/11/14 03:57:40;;;;;;;53.30;36.92;;;7.10;99.90;;;;;;5112390;28;20056;-70
2022/11/14 04:00:07;;;;;;;58.38;39.78;;;7.00;99.90;;;;;;5112266;28;20043;-70
2022/11/14 04:02:32;;;;;;;52.75;37.67;;;7.00;99.90;;;;;;5112512;28;20040;-70
2022/11/14 04:04:58;;;;;;;51.50;38.42;;;7.10;99.90;;;;;;5112283;28;20495;-70
2022/11/14 04:07:23;;;;;;;56.42;38.47;;;7.00;99.90;;;;;;5112255;28;20044;-70
2022/11/14 04:09:50;;;;;;;54.63;36.67;;;7.10;99.90;;;;;;5112205;28;20050;-70
2022/11/14 04:12:16;;;;;;;57.50;38.22;;;7.00;99.90;;;;;;5112163;28;20085;-70
2022/11/14 04:14:42;;;;;;;52.15;36.45;;;7.00;99.90;;;;;;5112239;28;20124;-70
2022/11/14 04:17:08;;;;;;;52.90;37.33;;;7.00;99.90;;;;;;5112465;28;20043;-70
2022/11/14 04:19:33;;;;;;;54.60;37.50;;;7.00;99.90;;;;;;5112109;28;20385;-70
2022/11/14 04:21:59;;;;;;;54.58;37.30;;;7.00;99.90;;;;;;5112120;28;20063;-70
2022/11/14 04:24:24;;;;;;;51.78;37.20;;;7.00;99.90;;;;;;5112352;28;20040;-70
2022/11/14 04:26:50;;;;;;;51.58;37.83;;;7.00;99.90;;;;;;5112356;28;20400;-70
2022/11/14 04:29:15;;;;;;;52.78;37.05;;;7.00;99.90;;;;;;5112293;28;20389;-71
2022/11/14 04:31:41;;;;;;;51.95;36.65;;;7.00;99.90;;;;;;5112006;28;20410;-71
2022/11/14 04:34:06;;;;;;;56.70;38.00;;;7.00;99.90;;;;;;5112026;28;20043;-71
2022/11/14 04:36:32;;;;;;;50.53;36.88;;;7.00;99.90;;;;;;5111973;28;20093;-71
2022/11/14 04:38:58;;;;;;;52.78;35.83;;;7.00;99.90;;;;;;5112112;28;20044;-71
2022/11/14 04:41:23;;;;;;;52.90;37.15;;;7.00;99.90;;;;;;5111768;28;20126;-71
2022/11/14 04:43:49;;;;;;;50.90;37.47;;;7.00;99.90;;;;;;5111940;28;20112;-70
2022/11/14 04:46:15;;;;;;;54.58;37.20;;;7.00;99.90;;;;;;5112187;28;20054;-70
2022/11/14 04:48:40;;;;;;;50.28;35.88;;;7.00;99.90;;;;;;5113724;28;20110;-70
2022/11/14 04:51:06;;;;;;;54.58;37.15;;;7.00;99.90;;;;;;5111872;28;20054;-70
2022/11/14 04:53:31;;;;;;;51.05;36.63;;;7.00;99.90;;;;;;5116004;28;20039;-70
2022/11/14 04:55:57;;;;;;;54.35;36.20;;;7.00;99.90;;;;;;5115953;28;20423;-70
2022/11/14 04:58:23;;;;;;;50.22;35.58;;;7.00;99.90;;;;;;5115637;28;20500;-70
2022/11/14 05:00:48;;;;;;;52.08;36.72;;;7.00;99.90;;;;;;5115444;28;20040;-70
2022/11/14 05:03:14;;;;;;;50.35;36.70;;;7.00;99.90;;;;;;5117070;28;20035;-70
2022/11/14 05:05:39;;;;;;;51.20;37.03;;;7.00;99.90;;;;;;5115526;28;20043;-70
2022/11/14 05:08:05;;;;;;;54.63;36.72;;;7.00;99.90;;;;;;5116698;28;20039;-70
2022/11/14 05:10:30;;;;;;;51.42;37.33;;;7.00;99.90;;;;;;5098437;28;20088;-70
2022/11/14 05:12:56;;;;;;;48.63;34.90;;;7.00;99.90;;;;;;5115289;28;20045;-70
2022/11/14 05:15:22;;;;;;;55.10;36.13;;;7.00;99.90;;;;;;5116836;28;20111;-70
2022/11/14 05:17:47;;;;;;;52.40;36.72;;;7.10;99.90;;;;;;5115278;28;20039;-70
2022/11/14 05:20:13;;;;;;;53.05;36.60;;;7.10;99.90;;;;;;5115134;28;20051;-70
2022/11/14 05:22:38;;;;;;;51.63;36.75;;;7.00;99.90;;;;;;5115156;28;20038;-70
2022/11/14 05:25:05;;;;;;;46.22;34.25;;;7.00;99.90;;;;;;5115170;28;20088;-70
2022/11/14 05:27:31;;;;;;;47.85;34.85;;;7.00;99.90;;;;;;5115087;28;20085;-70
2022/11/14 05:29:56;;;;;;;52.55;37.45;;;7.00;99.90;;;;;;5115082;28;20043;-70
2022/11/14 05:32:22;;;;;;;53.58;36.63;;;7.00;99.90;;;;;;5114947;28;20096;-70
2022/11/14 05:34:47;;;;;;;52.25;36.63;;;7.10;99.90;;;;;;5114965;28;20036;-70
2022/11/14 05:37:13;;;;;;;52.80;37.45;;;7.00;99.90;;;;;;5114832;28;20040;-70
2022/11/14 05:39:39;;;;;;;49.92;36.05;;;7.10;99.90;;;;;;5115061;28;20074;-70
2022/11/14 05:42:05;;;;;;;47.50;35.03;;;7.00;99.90;;;;;;5114610;28;20504;-70
2022/11/14 05:44:31;;;;;;;49.53;36.00;;;7.00;99.90;;;;;;5114787;28;20042;-71
2022/11/14 05:46:56;;;;;;;50.85;36.00;;;7.00;99.90;;;;;;5097745;28;20050;-71
2022/11/14 05:49:22;;;;;;;48.58;36.25;;;7.00;99.90;;;;;;5114959;28;20066;-71
2022/11/14 05:51:48;;;;;;;54.55;37.00;;;7.00;99.90;;;;;;5114862;28;20048;-71
2022/11/14 05:54:13;;;;;;;56.30;37.72;;;7.00;99.90;;;;;;5114607;28;20592;-71
2022/11/14 05:56:39;;;;;;;56.97;37.75;;;7.00;99.90;;;;;;5114792;28;20039;-71
2022/11/14 05:59:05;;;;;;;52.92;37.60;;;6.90;99.90;;;;;;5114445;28;20123;-71
2022/11/14 06:01:30;;;;;;;54.08;37.00;;;6.90;99.90;;;;;;5114402;28;20039;-70
2022/11/14 06:03:56;;;;;;;55.22;38.00;;;6.90;99.90;;;;;;5096969;28;20127;-70
2022/11/14 06:06:22;;;;;;;59.90;38.03;;;6.90;99.90;;;;;;5114347;28;20071;-70
2022/11/14 06:08:48;;;;;;;56.15;36.75;;;6.90;99.90;;;;;;5114584;28;20039;-70
2022/11/14 06:11:16;;;;;;;54.45;37.53;;;6.90;99.90;;;;;;5114220;28;20081;-70
2022/11/14 06:13:42;;;;;;;60.55;39.20;;;6.90;99.90;;;;;;5114233;28;20115;-70
2022/11/14 06:16:18;;;;;;;59.10;39.55;;;6.90;99.90;;;;;;5114397;28;20481;-70
2022/11/14 06:18:44;;;;;;;61.53;38.95;;;6.90;99.90;;;;;;5114120;28;20039;-70
2022/11/14 06:21:16;;;;;;;60.78;39.53;;;6.80;99.90;;;;;;5113958;28;20040;-70
2022/11/14 06:23:42;;;;;;;62.00;40.60;;;6.80;99.90;;;;;;5114346;28;20055;-70
2022/11/14 06:26:30;;;;;;;57.30;37.83;;;6.80;99.90;;;;;;5113984;28;20039;-70
2022/11/14 06:28:57;;;;;;;61.45;39.03;;;6.80;99.90;;;;;;5113936;28;20043;-70
2022/11/14 06:31:23;;;;;;;59.25;38.45;;;6.80;99.90;;;;;;5114066;28;20107;-70
2022/11/14 06:33:49;;;;;;;60.42;39.28;;;6.80;99.90;;;;;;5114097;28;20078;-70
2022/11/14 06:36:15;;;;;;;65.70;40.40;;;6.80;99.90;;;;;;5114038;28;20496;-70
2022/11/14 06:38:41;;;;;;;61.83;39.45;;;6.80;99.90;;;;;;5113721;28;20038;-70
2022/11/14 06:41:18;;;;;;;64.50;41.17;;;6.80;99.90;;;;;;5113558;28;20130;-70
2022/11/14 06:43:46;;;;;;;61.00;40.10;;;6.80;99.90;;;;;;5113708;28;20039;-70
2022/11/14 06:46:17;;;;;;;62.95;39.17;;;6.80;99.90;;;;;;5113852;28;20075;-70
2022/11/14 06:48:44;;;;;;;63.28;39.28;;;6.80;99.90;;;;;;5113582;28;20046;-70
2022/11/14 06:51:11;;;;;;;68.75;40.88;;;6.80;99.90;;;;;;5096639;28;20500;-71
2022/11/14 06:53:37;;;;;;;61.25;40.03;;;6.80;99.90;;;;;;5113447;28;20047;-71
2022/11/14 06:56:05;;;;;;;65.43;41.10;;;6.80;99.90;;;;;;5113356;28;20062;-71
2022/11/14 06:58:33;;;;;;;71.82;43.22;;;6.80;99.90;;;;;;5113343;28;20144;-71
2022/11/14 07:01:09;;;;;;;64.22;40.83;;;6.80;99.90;;;;;;5113223;28;20063;-70
2022/11/14 07:03:35;;;;;;;63.92;41.22;;;6.80;99.90;;;;;;5113329;28;20044;-70
2022/11/14 07:06:01;;;;;;;73.72;43.30;;;6.80;99.90;;;;;;5114671;28;20032;-70
2022/11/14 07:08:28;;;;;;;67.88;42.22;;;6.70;99.90;;;;;;5114402;28;20573;-70
2022/11/14 07:10:53;;;;;;;67.50;41.25;;;6.80;99.90;;;;;;5096105;28;20042;-70
2022/11/14 07:13:19;;;;;;;67.63;41.13;;;6.70;99.90;;;;;;5113070;28;20035;-70
2022/11/14 07:15:52;;;;;;;67.88;41.70;;;6.70;99.90;;;;;;5112440;28;20039;-70
2022/11/14 07:18:18;;;;;;;64.05;39.13;;;6.80;99.90;;;;;;5113233;28;20051;-70
2022/11/14 07:20:44;;;;;;;64.28;39.38;;;6.70;99.90;;;;;;5112813;28;20051;-70
2022/11/14 07:23:09;;;;;;;64.97;41.58;;;6.70;99.90;;;;;;5112892;28;20036;-71
2022/11/14 07:25:35;;;;;;;68.55;41.58;;;6.70;99.90;;;;;;5113122;28;20038;-71
2022/11/14 07:28:00;;;;;;;67.68;41.63;;;6.70;99.90;;;;;;5112825;28;20423;-71
2022/11/14 07:30:26;;;;;;;60.80;38.63;;;6.70;99.90;;;;;;5112721;28;20051;-71
2022/11/14 07:32:59;;;;;;;68.45;41.10;;;6.70;99.90;;;;;;5112628;28;20056;-71
2022/11/14 07:35:24;;;;;;;61.55;39.13;;;6.70;99.90;;;;;;5112750;28;20532;-71
2022/11/14 07:37:50;;;;;;;66.90;40.95;;;6.70;99.90;;;;;;5112658;28;20082;-71
2022/11/14 07:40:17;;;;;;;61.72;39.05;;;6.70;99.90;;;;;;5112485;28;20044;-71
2022/11/14 07:42:42;;;;;;;58.45;38.38;;;6.70;99.90;;;;;;5112416;28;20035;-71
2022/11/14 07:45:09;;;;;;;71.03;41.30;;;6.70;99.90;;;;;;5112827;28;20043;-71
2022/11/14 07:47:35;;;;;;;62.15;38.72;;;6.70;99.90;;;;;;5112513;28;20040;-71
2022/11/14 07:50:00;;;;;;;61.03;39.45;;;6.70;99.90;;;;;;5112755;28;20053;-71
2022/11/14 07:52:26;;;;;;;62.05;39.30;;;6.70;99.90;;;;;;5112642;28;20445;-71
2022/11/14 07:54:51;;;;;;;68.93;41.97;;;6.70;99.90;;;;;;5113165;28;20059;-71
2022/11/14 07:57:17;;;;;;;67.95;41.40;;;6.70;99.90;;;;;;5112347;28;20040;-71
2022/11/14 07:59:43;;;;;;;70.28;41.40;;;6.70;99.90;;;;;;5112275;28;20127;-71
2022/11/14 08:02:14;;;;;;;63.80;39.75;;;6.70;99.90;;;;;;5112249;28;20035;-71
2022/11/14 08:04:41;;;;;;;63.85;39.30;;;6.70;99.90;;;;;;5112243;28;20157;-70
2022/11/14 08:07:06;;;;;;;68.65;41.20;;;6.70;99.90;;;;;;5112514;28;20032;-70
2022/11/14 08:09:32;;;;;;;65.15;39.78;;;6.80;99.90;;;;;;5112564;28;20507;-71
2022/11/14 08:11:58;;;;;;;66.65;41.38;;;6.80;99.90;;;;;;5112197;28;20403;-71
2022/11/14 08:14:23;;;;;;;63.72;40.42;;;6.80;99.90;;;;;;5112191;28;20071;-71
2022/11/14 08:16:49;;;;;;;70.03;40.78;;;6.80;99.90;;;;;;5112227;28;20039;-71
2022/11/14 08:19:15;;;;;;;64.20;39.50;;;6.90;99.90;;;;;;5112126;28;20035;-71
2022/11/14 08:21:41;;;;;;;62.10;39.50;;;6.90;99.90;;;;;;5112360;28;20039;-71
2022/11/14 08:24:07;;;;;;;60.70;38.25;;;6.90;99.90;;;;;;5112431;28;20450;-71
2022/11/14 08:26:33;;;;;;;61.60;38.80;;;6.90;99.90;;;;;;5112981;28;20047;-71
2022/11/14 08:28:58;;;;;;;63.33;39.30;;;6.90;99.90;;;;;;5116283;28;20044;-71
2022/11/14 08:31:24;;;;;;;62.78;38.67;;;7.00;99.90;;;;;;5116096;28;20032;-71
2022/11/14 08:33:51;;;;;;;57.08;36.35;;;7.00;99.90;;;;;;5116470;28;20126;-71
2022/11/14 08:36:17;;;;;;;56.17;35.83;;;7.00;99.90;;;;;;5116135;28;20519;-71
2022/11/14 08:38:43;;;;;;;60.78;38.45;;;7.10;99.90;;;;;;5116344;28;20035;-71
2022/11/14 08:41:08;;;;;;;52.80;34.92;;;7.10;99.90;;;;;;5115781;28;20496;-71
2022/11/14 08:43:34;;;;;;;57.22;37.38;;;7.10;99.90;;;;;;5117294;28;20564;-71
2022/11/14 08:46:01;;;;;;;55.95;37.25;;;7.20;99.90;;;;;;5116091;28;20530;-71
2022/11/14 08:48:27;;;;;;;55.80;35.08;;;7.20;99.90;;;;;;5116238;28;20047;-71
2022/11/14 08:50:53;;;;;;;57.85;36.65;;;7.20;99.90;;;;;;5115989;28;20040;-71
2022/11/14 08:53:18;;;;;;;55.92;36.10;;;7.20;99.90;;;;;;5115758;28;20502;-71
2022/11/14 08:55:45;;;;;;;55.40;35.53;;;7.20;99.90;;;;;;5115620;28;20047;-71
2022/11/14 08:58:11;;;;;;;54.67;34.80;;;7.30;99.90;;;;;;5115640;28;20044;-71
2022/11/14 09:00:37;;;;;;;59.63;36.63;;;7.20;99.90;;;;;;5117297;28;20515;-71
2022/11/14 09:03:10;;;;;;;55.55;36.35;;;7.30;99.90;;;;;;5115492;28;20035;-71
2022/11/14 09:05:36;;;;;;;58.13;36.33;;;7.30;99.90;;;;;;5115573;28;20488;-70
2022/11/14 09:08:02;;;;;;;56.75;36.33;;;7.30;99.90;;;;;;5115500;28;20071;-71
2022/11/14 09:10:28;;;;;;;59.03;36.25;;;7.30;99.90;;;;;;5115737;28;20043;-71
2022/11/14 09:12:55;;;;;;;56.70;36.60;;;7.40;99.90;;;;;;5115356;28;20050;-71
2022/11/14 09:15:21;;;;;;;55.38;35.42;;;7.40;99.90;;;;;;5115535;28;20048;-70
2022/11/14 09:17:47;;;;;;;52.42;34.63;;;7.50;99.90;;;;;;5115308;28;20051;-70
2022/11/14 09:20:13;;;;;;;54.83;35.30;;;7.50;99.90;;;;;;5116519;28;20039;-70
2022/11/14 09:22:38;;;;;;;51.25;35.00;;;7.60;99.90;;;;;;5115193;28;20119;-70
2022/11/14 09:25:04;;;;;;;50.63;34.55;;;7.60;99.90;;;;;;5115190;28;20118;-70
2022/11/14 09:27:30;;;;;;;56.88;35.50;;;7.60;99.90;;;;;;5115125;28;20075;-71
2022/11/14 09:29:55;;;;;;;54.03;33.90;;;7.70;99.90;;;;;;5115498;28;20084;-70
2022/11/14 09:32:21;;;;;;;52.13;33.50;;;7.70;99.90;;;;;;5115230;28;20484;-70
2022/11/14 09:34:47;;;;;;;50.83;32.25;;;7.80;99.90;;;;;;5116798;28;20055;-70
2022/11/14 09:37:12;;;;;;;51.30;34.15;;;7.80;99.90;;;;;;5115027;28;20035;-70
2022/11/14 09:39:39;;;;;;;51.88;33.78;;;7.90;99.90;;;;;;5113780;28;20039;-70
2022/11/14 09:42:33;;;;;;;48.47;33.03;;;7.90;99.90;;;;;;5114772;28;20448;-70
2022/11/14 09:45:17;;;;;;;50.30;32.45;;;8.00;99.90;;;;;;5115208;28;20048;-71
2022/11/14 09:47:46;;;;;;;50.47;32.55;;;8.00;99.90;;;;;;5115600;28;20435;-70
2022/11/14 09:50:24;;;;;;;49.28;32.92;;;8.10;99.90;;;;;;5114803;28;20046;-70
2022/11/14 09:52:56;;;;;;;46.05;31.52;;;8.10;99.90;;;;;;5114754;28;20560;-70
2022/11/14 09:55:30;;;;;;;49.42;31.67;;;8.10;99.90;;;;;;5115917;28;20511;-70
2022/11/14 09:57:56;;;;;;;45.63;31.23;;;8.10;99.90;;;;;;5114816;28;20039;-70
2022/11/14 10:00:26;;;;;;;46.42;30.58;;;8.20;99.90;;;;;;5115974;28;20050;-70
2022/11/14 10:03:04;;;;;;;48.38;31.63;;;8.20;99.90;;;;;;5114670;28;20128;-70
2022/11/14 10:05:45;;;;;;;49.85;32.45;;;8.20;99.90;;;;;;5097375;28;20047;-72
2022/11/14 10:08:32;;;;;;;50.08;31.55;;;8.20;99.90;;;;;;5114447;28;20055;-71
2022/11/14 10:11:06;;;;;;;49.75;32.88;;;8.30;99.90;;;;;;5114277;28;20047;-71
2022/11/14 10:13:52;;;;;;;45.38;31.55;;;8.30;99.90;;;;;;5114571;28;20106;-71
2022/11/14 10:16:40;;;;;;;50.97;31.98;;;8.30;99.90;;;;;;5114123;28;20044;-71
2022/11/14 10:19:24;;;;;;;46.67;31.25;;;8.40;99.90;;;;;;5114057;28;20050;-71
2022/11/14 10:22:14;;;;;;;44.65;31.10;;;8.40;99.90;;;;;;5114597;28;20043;-71
2022/11/14 10:24:59;;;;;;;48.55;32.55;;;8.40;99.90;;;;;;5114051;28;20078;-72
2022/11/14 10:27:57;;;;;;;43.97;30.58;;;8.40;99.90;;;;;;5114227;28;20075;-71
2022/11/14 10:30:27;;;;;;;45.50;30.65;;;8.40;99.90;;;;;;5113968;28;20258;-72
2022/11/14 10:33:19;;;;;;;43.60;29.95;;;8.50;99.90;;;;;;5113834;28;20412;-72
2022/11/14 10:35:58;;;;;;;48.03;31.10;;;8.50;99.90;;;;;;5113851;28;20126;-70
2022/11/14 10:38:34;;;;;;;42.90;29.75;;;8.60;99.90;;;;;;5114057;28;20055;-71
2022/11/14 10:41:05;;;;;;;45.75;29.02;;;8.60;99.90;;;;;;5113594;28;20514;-70
2022/11/14 10:43:47;;;;;;;46.10;31.45;;;8.70;99.90;;;;;;5114916;28;20042;-73
2022/11/14 10:46:38;;;;;;;44.78;30.25;;;8.80;99.90;;;;;;5113586;28;20039;-70
2022/11/14 10:49:16;;;;;;;42.58;29.55;;;8.80;99.90;;;;;;5114577;28;20074;-70
2022/11/14 10:51:49;;;;;;;42.78;28.52;;;8.90;99.90;;;;;;5113726;28;20043;-71
2022/11/14 10:54:24;;;;;;;43.72;29.70;;;8.90;99.90;;;;;;5113770;28;20058;-70
2022/11/14 10:56:52;;;;;;;42.22;30.45;;;8.90;99.90;;;;;;5113505;28;20074;-70
2022/11/14 10:59:18;;;;;;;45.38;30.15;;;9.00;99.90;;;;;;5113269;28;20412;-70
2022/11/14 11:01:54;;;;;;;41.05;29.08;;;9.20;99.90;;;;;;5113291;28;20168;-70
2022/11/14 11:04:24;;;;;;;39.10;29.08;;;10.10;99.90;;;;;;5113553;28;20051;-70
2022/11/14 11:12:49;;;;;;;37.33;27.95;;;13.20;99.90;;;;;;5113040;28;20555;-71
2022/11/14 11:15:30;;;;;;;41.78;29.23;;;12.70;99.50;;;;;;5114367;28;20467;-71
2022/11/14 11:17:58;;;;;;;39.28;28.45;;;12.30;99.60;;;;;;5096382;28;20039;-71
2022/11/14 11:20:36;;;;;;;35.60;25.92;;;12.20;99.90;;;;;;5113011;28;20079;-71
2022/11/14 11:23:06;;;;;;;37.88;26.95;;;11.90;99.90;;;;;;5113145;28;20058;-71
2022/11/14 11:25:33;;;;;;;37.20;27.83;;;11.40;99.90;;;;;;5114176;28;20046;-71
2022/11/14 11:28:19;;;;;;;34.65;27.02;;;11.00;99.90;;;;;;5113142;28;20035;-70
2022/11/14 11:30:56;;;;;;;36.38;27.08;;;10.80;99.90;;;;;;5113069;28;20118;-70
2022/11/14 11:33:28;;;;;;;38.58;27.65;;;10.70;99.90;;;;;;5112749;28;20039;-71
2022/11/14 11:36:03;;;;;;;37.45;28.10;;;10.50;99.90;;;;;;5112757;28;20051;-70
2022/11/14 11:38:31;;;;;;;36.35;27.00;;;10.40;99.90;;;;;;5112930;28;20055;-70
2022/11/14 11:41:19;;;;;;;37.03;27.35;;;10.30;99.90;;;;;;5112539;28;20056;-70
2022/11/14 11:43:53;;;;;;;36.05;27.58;;;10.30;99.90;;;;;;5112669;28;20416;-71
2022/11/14 11:46:50;;;;;;;39.17;27.60;;;10.20;99.90;;;;;;5112616;28;20050;-70
2022/11/14 11:49:41;;;;;;;36.83;26.77;;;10.10;99.90;;;;;;5112681;28;20036;-71
2022/11/14 11:52:26;;;;;;;34.83;27.00;;;10.10;99.90;;;;;;5112547;28;20504;-70
2022/11/14 11:55:07;;;;;;;35.22;26.25;;;10.10;99.90;;;;;;5112409;28;20492;-70
2022/11/14 11:57:42;;;;;;;36.92;27.00;;;10.10;99.90;;;;;;5112423;28;20039;-70
2022/11/14 12:00:20;;;;;;;32.83;24.88;;;10.00;99.90;;;;;;5112365;28;20071;-70
2022/11/14 12:02:49;;;;;;;38.03;26.13;;;10.20;99.90;;;;;;5111947;28;20048;-70
2022/11/14 12:05:36;;;;;;;32.35;24.33;;;10.80;99.90;;;;;;5112548;28;20043;-70
2022/11/14 12:08:10;;;;;;;32.28;24.90;;;12.50;99.90;;;;;;5114131;28;20036;-70
2022/11/14 12:10:39;;;;;;;34.53;24.88;;;14.30;97.90;;;;;;5112322;28;20054;-70
2022/11/14 12:13:19;;;;;;;31.65;23.80;;;15.60;95.10;;;;;;5112183;28;20055;-70
2022/11/14 12:16:06;;;;;;;32.13;23.80;;;17.00;92.20;;;;;;5112259;28;20088;-70
2022/11/14 12:18:35;;;;;;;27.35;22.08;;;18.00;85.10;;;;;;5112446;28;20054;-70
2022/11/14 12:21:08;;;;;;;31.85;23.42;;;18.70;80.60;;;;;;5113292;28;20063;-70
2022/11/14 12:24:01;;;;;;;32.22;22.65;;;19.30;77.20;;;;;;5112434;28;20032;-70
2022/11/14 12:26:50;;;;;;;27.77;22.25;;;19.90;74.30;;;;;;5112368;28;20066;-70
2022/11/14 12:29:27;;;;;;;27.27;21.67;;;20.30;70.30;;;;;;5112162;28;20613;-71
2022/11/14 12:32:01;;;;;;;28.65;21.42;;;20.50;68.40;;;;;;5112013;28;20036;-71
2022/11/14 12:34:44;;;;;;;26.40;21.50;;;20.80;66.70;;;;;;5112113;28;20061;-70
2022/11/14 12:37:22;;;;;;;26.60;21.20;;;20.70;65.40;;;;;;5095167;28;20039;-71
2022/11/14 12:40:03;;;;;;;28.00;21.10;;;20.80;64.30;;;;;;5112249;28;20059;-71
2022/11/14 12:42:30;;;;;;;27.48;21.23;;;20.20;62.60;;;;;;5112378;28;20043;-71
2022/11/14 12:44:56;;;;;;;26.73;20.50;;;19.10;66.20;;;;;;5113206;28;20040;-71
2022/11/14 12:47:24;;;;;;;24.63;21.08;;;18.50;68.10;;;;;;5112245;28;20106;-70
2022/11/14 12:49:53;;;;;;;29.20;21.63;;;18.00;69.30;;;;;;5111971;28;20048;-70
2022/11/14 12:52:43;;;;;;;28.23;21.13;;;17.40;70.20;;;;;;5111852;28;20074;-70